sensor_id;sensor_type;location;lat;lon;timestamp;pressure;altitude;pressure_sealevel;temperature;humidity
36234;BME280;43467;50.890;5.982;2023-04-09T00:02:18;101078.16;;;11.69;71.35
36234;BME280;43467;50.890;5.982;2023-04-09T00:04:43;101080.16;;;11.62;71.56
36234;BME280;43467;50.890;5.982;2023-04-09T00:07:09;101072.22;;;11.62;71.52
36234;BME280;43467;50.890;5.982;2023-04-09T00:09:35;101082.03;;;11.60;71.50
36234;BME280;43467;50.890;5.982;2023-04-09T00:12:01;101081.19;;;11.58;71.74
36234;BME280;43467;50.890;5.982;2023-04-09T00:14:27;101076.00;;;11.55;71.48
36234;BME280;43467;50.890;5.982;2023-04-09T00:16:53;101073.53;;;11.51;71.76
36234;BME280;43467;50.890;5.982;2023-04-09T00:19:19;101077.16;;;11.48;71.77
36234;BME280;43467;50.890;5.982;2023-04-09T00:21:45;101073.84;;;11.42;71.78
36234;BME280;43467;50.890;5.982;2023-04-09T00:24:10;101064.19;;;11.41;71.60
36234;BME280;43467;50.890;5.982;2023-04-09T00:26:36;101079.44;;;11.34;72.36
36234;BME280;43467;50.890;5.982;2023-04-09T00:29:01;101076.78;;;11.34;72.06
36234;BME280;43467;50.890;5.982;2023-04-09T00:31:27;101076.72;;;11.36;71.99
36234;BME280;43467;50.890;5.982;2023-04-09T00:33:52;101064.34;;;11.36;72.13
36234;BME280;43467;50.890;5.982;2023-04-09T00:36:17;101066.00;;;11.39;71.86
36234;BME280;43467;50.890;5.982;2023-04-09T00:38:43;101075.00;;;11.35;72.11
36234;BME280;43467;50.890;5.982;2023-04-09T00:41:09;101070.59;;;11.34;71.93
36234;BME280;43467;50.890;5.982;2023-04-09T00:43:34;101076.50;;;11.42;71.48
36234;BME280;43467;50.890;5.982;2023-04-09T00:46:00;101074.78;;;11.41;71.67
36234;BME280;43467;50.890;5.982;2023-04-09T00:48:26;101070.41;;;11.40;71.69
36234;BME280;43467;50.890;5.982;2023-04-09T00:50:51;101072.06;;;11.42;71.41
36234;BME280;43467;50.890;5.982;2023-04-09T00:53:17;101081.03;;;11.38;71.93
36234;BME280;43467;50.890;5.982;2023-04-09T00:55:43;101090.75;;;11.39;71.73
36234;BME280;43467;50.890;5.982;2023-04-09T00:58:10;101072.88;;;11.44;71.72
36234;BME280;43467;50.890;5.982;2023-04-09T01:00:35;101064.81;;;11.47;71.63
36234;BME280;43467;50.890;5.982;2023-04-09T01:03:01;101073.47;;;11.52;71.25
36234;BME280;43467;50.890;5.982;2023-04-09T01:08:34;101061.94;;;11.53;71.35
36234;BME280;43467;50.890;5.982;2023-04-09T01:11:35;101061.09;;;11.53;71.38
36234;BME280;43467;50.890;5.982;2023-04-09T01:17:16;101049.94;;;11.43;71.73
36234;BME280;43467;50.890;5.982;2023-04-09T01:22:32;101048.91;;;11.47;71.72
36234;BME280;43467;50.890;5.982;2023-04-09T01:30:46;101047.25;;;11.45;71.37
36234;BME280;43467;50.890;5.982;2023-04-09T01:33:13;101048.19;;;11.42;71.58
36234;BME280;43467;50.890;5.982;2023-04-09T01:35:42;101039.06;;;11.26;71.79
36234;BME280;43467;50.890;5.982;2023-04-09T01:38:08;101046.75;;;11.09;72.61
36234;BME280;43467;50.890;5.982;2023-04-09T01:40:35;101039.72;;;11.08;72.79
36234;BME280;43467;50.890;5.982;2023-04-09T01:43:01;101037.16;;;11.05;72.95
36234;BME280;43467;50.890;5.982;2023-04-09T01:45:27;101036.38;;;11.03;72.79
36234;BME280;43467;50.890;5.982;2023-04-09T01:47:54;101036.38;;;11.03;73.04
36234;BME280;43467;50.890;5.982;2023-04-09T01:50:20;101039.03;;;11.03;72.77
36234;BME280;43467;50.890;5.982;2023-04-09T01:52:47;101031.06;;;11.03;72.80
36234;BME280;43467;50.890;5.982;2023-04-09T01:55:12;101026.63;;;11.03;72.72
36234;BME280;43467;50.890;5.982;2023-04-09T01:57:38;101031.09;;;11.01;72.55
36234;BME280;43467;50.890;5.982;2023-04-09T02:00:05;101034.03;;;10.94;72.70
36234;BME280;43467;50.890;5.982;2023-04-09T02:02:36;101027.06;;;10.91;72.91
36234;BME280;43467;50.890;5.982;2023-04-09T02:05:06;101022.69;;;10.90;72.78
36234;BME280;43467;50.890;5.982;2023-04-09T02:07:37;101028.63;;;10.97;72.45
36234;BME280;43467;50.890;5.982;2023-04-09T02:10:05;101027.00;;;10.93;72.85
36234;BME280;43467;50.890;5.982;2023-04-09T02:12:35;101024.50;;;10.88;73.10
36234;BME280;43467;50.890;5.982;2023-04-09T02:15:02;101025.59;;;10.83;73.10
36234;BME280;43467;50.890;5.982;2023-04-09T02:17:28;101024.84;;;10.79;73.52
36234;BME280;43467;50.890;5.982;2023-04-09T02:19:53;101017.91;;;10.75;73.24
36234;BME280;43467;50.890;5.982;2023-04-09T02:22:19;101023.28;;;10.72;73.54
36234;BME280;43467;50.890;5.982;2023-04-09T02:24:45;101026.13;;;10.67;73.37
36234;BME280;43467;50.890;5.982;2023-04-09T02:27:10;101021.72;;;10.66;73.63
36234;BME280;43467;50.890;5.982;2023-04-09T02:29:38;101024.97;;;10.75;73.65
36234;BME280;43467;50.890;5.982;2023-04-09T02:32:03;101023.13;;;10.77;73.14
36234;BME280;43467;50.890;5.982;2023-04-09T02:34:29;101020.47;;;10.77;73.16
36234;BME280;43467;50.890;5.982;2023-04-09T02:36:54;101014.44;;;10.73;72.91
36234;BME280;43467;50.890;5.982;2023-04-09T02:39:20;101016.97;;;10.76;73.16
36234;BME280;43467;50.890;5.982;2023-04-09T02:41:45;101013.38;;;10.79;72.91
36234;BME280;43467;50.890;5.982;2023-04-09T02:44:11;101003.78;;;10.75;72.80
36234;BME280;43467;50.890;5.982;2023-04-09T02:46:37;101001.56;;;10.62;73.15
36234;BME280;43467;50.890;5.982;2023-04-09T02:49:03;101006.34;;;10.51;73.89
36234;BME280;43467;50.890;5.982;2023-04-09T02:51:28;101006.13;;;10.57;73.66
36234;BME280;43467;50.890;5.982;2023-04-09T02:53:54;100999.22;;;10.53;73.23
36234;BME280;43467;50.890;5.982;2023-04-09T02:56:19;100997.13;;;10.63;73.17
36234;BME280;43467;50.890;5.982;2023-04-09T02:58:45;101001.34;;;10.42;74.01
36234;BME280;43467;50.890;5.982;2023-04-09T03:01:13;100979.50;;;10.36;73.29
36234;BME280;43467;50.890;5.982;2023-04-09T03:03:39;101003.03;;;10.45;73.05
36234;BME280;43467;50.890;5.982;2023-04-09T03:06:06;100999.84;;;10.35;73.53
36234;BME280;43467;50.890;5.982;2023-04-09T03:08:31;100998.25;;;10.30;73.59
36234;BME280;43467;50.890;5.982;2023-04-09T03:10:57;101001.22;;;10.19;73.91
36234;BME280;43467;50.890;5.982;2023-04-09T03:13:22;100989.94;;;10.12;74.17
36234;BME280;43467;50.890;5.982;2023-04-09T03:15:51;100996.03;;;10.16;73.74
36234;BME280;43467;50.890;5.982;2023-04-09T03:18:19;100991.59;;;10.16;73.31
36234;BME280;43467;50.890;5.982;2023-04-09T03:20:45;100983.69;;;10.15;73.43
36234;BME280;43467;50.890;5.982;2023-04-09T03:23:10;100991.47;;;10.21;72.99
36234;BME280;43467;50.890;5.982;2023-04-09T03:25:36;100996.66;;;10.24;72.91
36234;BME280;43467;50.890;5.982;2023-04-09T03:28:02;100993.13;;;10.23;73.07
36234;BME280;43467;50.890;5.982;2023-04-09T03:30:27;100988.72;;;10.24;73.51
36234;BME280;43467;50.890;5.982;2023-04-09T03:32:53;100988.81;;;10.21;73.45
36234;BME280;43467;50.890;5.982;2023-04-09T03:35:18;100987.06;;;10.20;73.46
36234;BME280;43467;50.890;5.982;2023-04-09T03:37:44;100982.41;;;10.28;73.44
36234;BME280;43467;50.890;5.982;2023-04-09T03:40:10;100983.22;;;10.30;73.22
36234;BME280;43467;50.890;5.982;2023-04-09T03:42:35;100979.84;;;10.25;72.96
36234;BME280;43467;50.890;5.982;2023-04-09T03:45:05;100984.53;;;10.17;73.41
36234;BME280;43467;50.890;5.982;2023-04-09T03:47:31;100978.13;;;10.24;73.20
36234;BME280;43467;50.890;5.982;2023-04-09T03:49:57;100982.66;;;10.20;73.36
36234;BME280;43467;50.890;5.982;2023-04-09T03:52:22;100986.91;;;10.26;73.49
36234;BME280;43467;50.890;5.982;2023-04-09T03:54:48;100983.28;;;10.29;72.99
36234;BME280;43467;50.890;5.982;2023-04-09T03:57:13;100977.47;;;10.17;73.75
36234;BME280;43467;50.890;5.982;2023-04-09T03:59:38;100970.53;;;10.12;73.92
36234;BME280;43467;50.890;5.982;2023-04-09T04:02:04;100974.97;;;10.11;74.04
36234;BME280;43467;50.890;5.982;2023-04-09T04:04:29;100973.13;;;10.15;73.61
36234;BME280;43467;50.890;5.982;2023-04-09T04:06:55;100984.38;;;10.21;73.20
36234;BME280;43467;50.890;5.982;2023-04-09T04:09:20;100981.69;;;10.23;73.11
36234;BME280;43467;50.890;5.982;2023-04-09T04:11:47;100980.16;;;10.16;73.58
36234;BME280;43467;50.890;5.982;2023-04-09T04:14:12;100981.94;;;10.15;73.67
36234;BME280;43467;50.890;5.982;2023-04-09T04:16:39;100979.31;;;10.14;73.94
36234;BME280;43467;50.890;5.982;2023-04-09T04:19:05;100973.81;;;10.21;73.99
36234;BME280;43467;50.890;5.982;2023-04-09T04:21:30;100971.06;;;10.24;73.58
36234;BME280;43467;50.890;5.982;2023-04-09T04:23:56;100977.06;;;10.30;73.43
36234;BME280;43467;50.890;5.982;2023-04-09T04:26:21;100976.38;;;10.23;73.39
36234;BME280;43467;50.890;5.982;2023-04-09T04:28:47;100980.91;;;10.19;73.55
36234;BME280;43467;50.890;5.982;2023-04-09T04:31:12;100980.78;;;10.24;73.68
36234;BME280;43467;50.890;5.982;2023-04-09T04:33:39;100973.75;;;10.23;73.32
36234;BME280;43467;50.890;5.982;2023-04-09T04:38:31;100980.00;;;10.20;73.77
36234;BME280;43467;50.890;5.982;2023-04-09T04:40:57;100978.22;;;10.21;73.60
36234;BME280;43467;50.890;5.982;2023-04-09T04:43:22;100975.69;;;10.18;74.04
36234;BME280;43467;50.890;5.982;2023-04-09T04:45:47;100980.16;;;10.16;74.15
36234;BME280;43467;50.890;5.982;2023-04-09T04:48:13;100978.56;;;10.10;74.08
36234;BME280;43467;50.890;5.982;2023-04-09T04:50:38;100986.53;;;10.09;73.68
36234;BME280;43467;50.890;5.982;2023-04-09T04:53:04;100979.31;;;10.14;73.78
36234;BME280;43467;50.890;5.982;2023-04-09T04:55:29;100975.81;;;10.13;73.89
36234;BME280;43467;50.890;5.982;2023-04-09T04:57:54;100986.38;;;10.13;74.13
36234;BME280;43467;50.890;5.982;2023-04-09T05:00:20;100985.19;;;10.23;73.64
36234;BME280;43467;50.890;5.982;2023-04-09T05:02:45;100990.44;;;10.25;73.16
36234;BME280;43467;50.890;5.982;2023-04-09T05:05:11;100984.59;;;10.14;73.35
36234;BME280;43467;50.890;5.982;2023-04-09T05:07:36;100987.94;;;10.20;73.23
36234;BME280;43467;50.890;5.982;2023-04-09T05:10:02;100974.09;;;10.11;73.35
36234;BME280;43467;50.890;5.982;2023-04-09T05:12:30;100987.91;;;10.22;73.36
36234;BME280;43467;50.890;5.982;2023-04-09T05:14:55;100991.56;;;10.18;73.55
36234;BME280;43467;50.890;5.982;2023-04-09T05:17:21;100980.31;;;10.10;73.61
36234;BME280;43467;50.890;5.982;2023-04-09T05:19:51;100977.84;;;10.04;74.12
36234;BME280;43467;50.890;5.982;2023-04-09T05:22:17;100977.84;;;10.04;73.93
36234;BME280;43467;50.890;5.982;2023-04-09T05:24:42;100971.78;;;10.02;73.89
36234;BME280;43467;50.890;5.982;2023-04-09T05:27:08;100972.91;;;9.93;74.54
36234;BME280;43467;50.890;5.982;2023-04-09T05:29:33;100970.06;;;9.99;74.42
36234;BME280;43467;50.890;5.982;2023-04-09T05:31:58;100967.34;;;10.02;74.26
36234;BME280;43467;50.890;5.982;2023-04-09T05:34:24;100968.25;;;10.01;74.18
36234;BME280;43467;50.890;5.982;2023-04-09T05:36:49;100976.19;;;10.01;74.21
36234;BME280;43467;50.890;5.982;2023-04-09T05:39:15;100974.50;;;9.99;74.35
36234;BME280;43467;50.890;5.982;2023-04-09T05:41:40;100977.22;;;9.96;74.55
36234;BME280;43467;50.890;5.982;2023-04-09T05:44:06;100971.06;;;9.95;74.59
36234;BME280;43467;50.890;5.982;2023-04-09T05:46:31;100970.13;;;9.98;74.40
36234;BME280;43467;50.890;5.982;2023-04-09T05:48:57;100965.88;;;9.92;74.83
36234;BME280;43467;50.890;5.982;2023-04-09T05:51:22;100969.38;;;9.94;74.68
36234;BME280;43467;50.890;5.982;2023-04-09T05:53:47;100972.72;;;9.99;74.55
36234;BME280;43467;50.890;5.982;2023-04-09T05:56:16;100977.81;;;10.05;74.35
36234;BME280;43467;50.890;5.982;2023-04-09T05:58:41;100977.75;;;10.07;74.50
36234;BME280;43467;50.890;5.982;2023-04-09T06:01:07;100978.47;;;10.12;74.24
36234;BME280;43467;50.890;5.982;2023-04-09T06:03:32;100983.47;;;10.22;73.61
36234;BME280;43467;50.890;5.982;2023-04-09T06:05:58;100979.75;;;10.28;73.27
36234;BME280;43467;50.890;5.982;2023-04-09T06:08:23;100971.81;;;10.28;73.16
36234;BME280;43467;50.890;5.982;2023-04-09T06:10:49;100976.84;;;10.36;73.05
36234;BME280;43467;50.890;5.982;2023-04-09T06:13:14;100981.19;;;10.38;73.22
36234;BME280;43467;50.890;5.982;2023-04-09T06:15:40;100983.69;;;10.43;73.12
36234;BME280;43467;50.890;5.982;2023-04-09T06:18:05;100991.31;;;10.52;73.13
36234;BME280;43467;50.890;5.982;2023-04-09T06:20:31;100990.22;;;10.59;73.00
36234;BME280;43467;50.890;5.982;2023-04-09T06:22:56;100990.09;;;10.62;72.45
36234;BME280;43467;50.890;5.982;2023-04-09T06:25:21;100982.72;;;10.71;72.50
36234;BME280;43467;50.890;5.982;2023-04-09T06:27:47;100996.72;;;10.75;72.26
36234;BME280;43467;50.890;5.982;2023-04-09T06:30:12;100996.28;;;10.87;72.29
36234;BME280;43467;50.890;5.982;2023-04-09T06:32:37;100983.91;;;10.88;71.87
36234;BME280;43467;50.890;5.982;2023-04-09T06:35:03;100993.97;;;11.03;71.92
36234;BME280;43467;50.890;5.982;2023-04-09T06:37:29;100992.81;;;11.10;72.14
36234;BME280;43467;50.890;5.982;2023-04-09T06:39:54;100991.19;;;11.06;72.84
36234;BME280;43467;50.890;5.982;2023-04-09T06:42:20;101004.59;;;11.26;72.23
36234;BME280;43467;50.890;5.982;2023-04-09T06:44:45;101006.00;;;11.36;71.20
36234;BME280;43467;50.890;5.982;2023-04-09T06:47:10;101005.06;;;11.37;70.42
36234;BME280;43467;50.890;5.982;2023-04-09T06:49:36;100998.81;;;11.40;70.34
36234;BME280;43467;50.890;5.982;2023-04-09T06:52:02;101005.94;;;11.38;70.24
36234;BME280;43467;50.890;5.982;2023-04-09T06:54:28;100993.34;;;11.44;69.88
36234;BME280;43467;50.890;5.982;2023-04-09T06:56:53;101007.38;;;11.46;69.78
36234;BME280;43467;50.890;5.982;2023-04-09T06:59:19;101006.53;;;11.46;69.63
36234;BME280;43467;50.890;5.982;2023-04-09T07:01:44;101001.13;;;11.49;69.59
36234;BME280;43467;50.890;5.982;2023-04-09T07:04:10;101000.09;;;11.53;69.65
36234;BME280;43467;50.890;5.982;2023-04-09T07:06:35;100995.41;;;11.59;69.26
36234;BME280;43467;50.890;5.982;2023-04-09T07:09:00;101001.41;;;11.64;69.39
36234;BME280;43467;50.890;5.982;2023-04-09T07:11:26;101001.16;;;11.71;69.08
36234;BME280;43467;50.890;5.982;2023-04-09T07:13:51;101003.63;;;11.77;68.57
36234;BME280;43467;50.890;5.982;2023-04-09T07:16:17;100999.03;;;11.82;68.22
36234;BME280;43467;50.890;5.982;2023-04-09T07:18:43;101005.84;;;11.87;67.98
36234;BME280;43467;50.890;5.982;2023-04-09T07:21:08;101007.59;;;11.88;67.65
36234;BME280;43467;50.890;5.982;2023-04-09T07:23:34;101014.56;;;11.91;66.98
36234;BME280;43467;50.890;5.982;2023-04-09T07:26:03;101012.84;;;11.90;66.38
36234;BME280;43467;50.890;5.982;2023-04-09T07:28:29;101024.13;;;11.95;66.42
36234;BME280;43467;50.890;5.982;2023-04-09T07:30:54;101018.03;;;11.93;66.05
36234;BME280;43467;50.890;5.982;2023-04-09T07:33:20;101024.03;;;11.98;66.14
36234;BME280;43467;50.890;5.982;2023-04-09T07:35:45;101025.75;;;11.99;66.50
36234;BME280;43467;50.890;5.982;2023-04-09T07:38:11;101018.72;;;11.98;65.75
36234;BME280;43467;50.890;5.982;2023-04-09T07:40:37;101027.59;;;11.97;65.59
36234;BME280;43467;50.890;5.982;2023-04-09T07:43:03;101027.59;;;11.97;66.04
36234;BME280;43467;50.890;5.982;2023-04-09T07:45:28;101025.69;;;12.00;66.02
36234;BME280;43467;50.890;5.982;2023-04-09T07:47:55;101029.78;;;12.09;66.14
36234;BME280;43467;50.890;5.982;2023-04-09T07:50:21;101029.66;;;12.12;65.53
36234;BME280;43467;50.890;5.982;2023-04-09T07:52:46;101028.63;;;12.16;65.43
36234;BME280;43467;50.890;5.982;2023-04-09T07:55:12;101031.31;;;12.15;65.04
36234;BME280;43467;50.890;5.982;2023-04-09T07:57:37;101025.16;;;12.14;65.49
36234;BME280;43467;50.890;5.982;2023-04-09T08:00:03;101033.00;;;12.17;64.82
36234;BME280;43467;50.890;5.982;2023-04-09T08:02:29;101027.50;;;12.22;65.32
36234;BME280;43467;50.890;5.982;2023-04-09T08:04:55;101029.31;;;12.21;65.00
36234;BME280;43467;50.890;5.982;2023-04-09T08:07:20;101032.09;;;12.18;64.73
36234;BME280;43467;50.890;5.982;2023-04-09T08:09:46;101030.78;;;12.28;63.77
36234;BME280;43467;50.890;5.982;2023-04-09T08:12:11;101023.72;;;12.27;62.95
36234;BME280;43467;50.890;5.982;2023-04-09T08:14:36;101030.56;;;12.34;63.11
36234;BME280;43467;50.890;5.982;2023-04-09T08:17:02;101033.13;;;12.36;63.15
36234;BME280;43467;50.890;5.982;2023-04-09T08:19:28;101037.19;;;12.44;62.80
36234;BME280;43467;50.890;5.982;2023-04-09T08:21:53;101029.22;;;12.44;62.58
36234;BME280;43467;50.890;5.982;2023-04-09T08:24:19;101036.22;;;12.47;61.74
36234;BME280;43467;50.890;5.982;2023-04-09T08:26:44;101033.25;;;12.54;61.72
36234;BME280;43467;50.890;5.982;2023-04-09T08:29:11;101031.34;;;12.58;61.75
36234;BME280;43467;50.890;5.982;2023-04-09T08:31:37;101029.13;;;12.68;61.71
36234;BME280;43467;50.890;5.982;2023-04-09T08:34:03;101032.47;;;12.73;62.09
36234;BME280;43467;50.890;5.982;2023-04-09T08:36:28;101035.13;;;12.73;62.12
36234;BME280;43467;50.890;5.982;2023-04-09T08:38:55;101034.09;;;12.77;62.10
36234;BME280;43467;50.890;5.982;2023-04-09T08:41:23;101032.47;;;12.73;61.74
36234;BME280;43467;50.890;5.982;2023-04-09T08:43:49;101033.22;;;12.76;62.71
36234;BME280;43467;50.890;5.982;2023-04-09T08:46:16;101032.47;;;12.73;61.99
36234;BME280;43467;50.890;5.982;2023-04-09T08:48:43;101031.63;;;12.72;61.50
36234;BME280;43467;50.890;5.982;2023-04-09T08:51:18;101028.53;;;12.83;61.44
36234;BME280;43467;50.890;5.982;2023-04-09T08:53:45;101028.72;;;12.78;60.94
36234;BME280;43467;50.890;5.982;2023-04-09T08:56:13;101024.06;;;12.83;60.68
36234;BME280;43467;50.890;5.982;2023-04-09T08:58:42;101022.25;;;12.84;61.18
36234;BME280;43467;50.890;5.982;2023-04-09T09:01:25;101019.03;;;12.97;61.14
36234;BME280;43467;50.890;5.982;2023-04-09T09:04:06;101017.63;;;12.89;61.36
36234;BME280;43467;50.890;5.982;2023-04-09T09:06:36;101019.59;;;12.84;60.91
36234;BME280;43467;50.890;5.982;2023-04-09T09:09:06;101015.97;;;12.86;60.67
36234;BME280;43467;50.890;5.982;2023-04-09T09:11:33;101001.28;;;12.98;60.37
36234;BME280;43467;50.890;5.982;2023-04-09T09:14:07;101002.09;;;13.00;60.20
36234;BME280;43467;50.890;5.982;2023-04-09T09:16:37;101002.19;;;12.97;59.54
36234;BME280;43467;50.890;5.982;2023-04-09T09:21:56;101007.53;;;13.17;59.07
36234;BME280;43467;50.890;5.982;2023-04-09T09:24:22;101007.97;;;13.28;57.86
36234;BME280;43467;50.890;5.982;2023-04-09T09:26:47;101003.16;;;13.36;55.65
36234;BME280;43467;50.890;5.982;2023-04-09T09:29:13;101010.78;;;13.44;55.38
36234;BME280;43467;50.890;5.982;2023-04-09T09:31:50;101006.03;;;13.50;54.21
36234;BME280;43467;50.890;5.982;2023-04-09T09:34:17;101000.66;;;13.52;53.18
36234;BME280;43467;50.890;5.982;2023-04-09T09:36:44;101005.19;;;13.50;53.00
36234;BME280;43467;50.890;5.982;2023-04-09T09:39:10;101000.53;;;13.55;53.60
36234;BME280;43467;50.890;5.982;2023-04-09T09:41:38;101009.16;;;13.60;54.29
36234;BME280;43467;50.890;5.982;2023-04-09T09:44:05;101006.72;;;13.56;54.54
36234;BME280;43467;50.890;5.982;2023-04-09T09:46:34;101003.00;;;13.39;54.81
36234;BME280;43467;50.890;5.982;2023-04-09T09:49:00;101000.56;;;13.35;54.65
36234;BME280;43467;50.890;5.982;2023-04-09T09:51:26;101004.09;;;13.35;55.49
36234;BME280;43467;50.890;5.982;2023-04-09T09:53:54;101002.66;;;13.47;54.90
36234;BME280;43467;50.890;5.982;2023-04-09T09:56:22;100995.91;;;13.59;54.72
36234;BME280;43467;50.890;5.982;2023-04-09T09:59:19;100992.84;;;13.68;53.75
36234;BME280;43467;50.890;5.982;2023-04-09T10:01:54;100991.81;;;13.70;52.59
36234;BME280;43467;50.890;5.982;2023-04-09T10:04:22;100995.06;;;13.77;52.89
36234;BME280;43467;50.890;5.982;2023-04-09T10:06:48;100988.38;;;13.87;52.42
36234;BME280;43467;50.890;5.982;2023-04-09T10:09:14;100993.41;;;13.74;51.83
36234;BME280;43467;50.890;5.982;2023-04-09T10:11:40;100983.91;;;13.87;52.88
36234;BME280;43467;50.890;5.982;2023-04-09T10:14:08;100990.75;;;13.93;51.20
36234;BME280;43467;50.890;5.982;2023-04-09T10:16:33;100992.47;;;13.94;51.85
36234;BME280;43467;50.890;5.982;2023-04-09T10:18:59;100990.81;;;13.91;51.97
36234;BME280;43467;50.890;5.982;2023-04-09T10:21:39;100993.72;;;14.06;50.92
36234;BME280;43467;50.890;5.982;2023-04-09T10:24:07;100987.28;;;14.10;49.53
36234;BME280;43467;50.890;5.982;2023-04-09T10:26:34;100991.44;;;14.15;49.74
36234;BME280;43467;50.890;5.982;2023-04-09T10:29:07;100985.91;;;14.20;50.79
36234;BME280;43467;50.890;5.982;2023-04-09T10:32:08;100994.81;;;14.19;49.82
36234;BME280;43467;50.890;5.982;2023-04-09T10:34:38;100991.88;;;14.25;50.10
36234;BME280;43467;50.890;5.982;2023-04-09T10:37:06;100984.03;;;14.40;50.98
36234;BME280;43467;50.890;5.982;2023-04-09T10:39:32;100983.56;;;14.50;50.08
36234;BME280;43467;50.890;5.982;2023-04-09T10:42:00;100983.81;;;14.62;51.31
36234;BME280;43467;50.890;5.982;2023-04-09T10:44:28;100975.88;;;14.61;50.03
36234;BME280;43467;50.890;5.982;2023-04-09T10:46:57;100983.66;;;14.65;48.51
36234;BME280;43467;50.890;5.982;2023-04-09T10:49:24;100974.78;;;14.65;49.62
36234;BME280;43467;50.890;5.982;2023-04-09T10:52:07;100967.34;;;14.71;48.52
36234;BME280;43467;50.890;5.982;2023-04-09T10:59:37;100963.56;;;14.75;48.21
36234;BME280;43467;50.890;5.982;2023-04-09T11:02:06;100962.75;;;14.75;47.83
36234;BME280;43467;50.890;5.982;2023-04-09T11:07:22;100965.53;;;14.72;47.19
36234;BME280;43467;50.890;5.982;2023-04-09T11:09:49;100960.84;;;14.77;48.82
36234;BME280;43467;50.890;5.982;2023-04-09T11:12:14;100961.72;;;14.77;47.04
36234;BME280;43467;50.890;5.982;2023-04-09T11:14:40;100961.19;;;14.71;48.05
36234;BME280;43467;50.890;5.982;2023-04-09T11:17:05;100955.84;;;14.71;46.81
36234;BME280;43467;50.890;5.982;2023-04-09T11:19:34;100957.53;;;14.72;47.90
36234;BME280;43467;50.890;5.982;2023-04-09T11:22:03;100950.56;;;14.69;46.83
36234;BME280;43467;50.890;5.982;2023-04-09T11:24:40;100941.47;;;14.73;47.03
36234;BME280;43467;50.890;5.982;2023-04-09T11:27:06;100941.25;;;14.78;47.23
36234;BME280;43467;50.890;5.982;2023-04-09T11:29:33;100931.81;;;14.88;46.32
36234;BME280;43467;50.890;5.982;2023-04-09T11:31:59;100927.91;;;14.95;46.88
36234;BME280;43467;50.890;5.982;2023-04-09T11:34:27;100929.78;;;14.93;44.94
36234;BME280;43467;50.890;5.982;2023-04-09T11:36:53;100927.25;;;15.07;47.41
36234;BME280;43467;50.890;5.982;2023-04-09T11:39:19;100923.31;;;15.14;46.47
36234;BME280;43467;50.890;5.982;2023-04-09T11:41:44;100931.59;;;15.25;47.10
36234;BME280;43467;50.890;5.982;2023-04-09T11:44:11;100927.19;;;15.24;44.36
36234;BME280;43467;50.890;5.982;2023-04-09T11:46:37;100925.38;;;15.25;44.70
36234;BME280;43467;50.890;5.982;2023-04-09T11:49:03;100925.16;;;15.29;45.28
36234;BME280;43467;50.890;5.982;2023-04-09T11:51:29;100922.47;;;15.29;44.33
36234;BME280;43467;50.890;5.982;2023-04-09T11:54:05;100918.81;;;15.32;43.77
36234;BME280;43467;50.890;5.982;2023-04-09T11:56:31;100917.69;;;15.36;44.70
36234;BME280;43467;50.890;5.982;2023-04-09T11:58:57;100918.00;;;15.30;43.84
36234;BME280;43467;50.890;5.982;2023-04-09T12:01:23;100911.63;;;15.32;43.50
36234;BME280;43467;50.890;5.982;2023-04-09T12:03:53;100919.38;;;15.37;43.16
36234;BME280;43467;50.890;5.982;2023-04-09T12:06:22;100911.28;;;15.23;43.04
36234;BME280;43467;50.890;5.982;2023-04-09T12:08:56;100911.03;;;15.27;43.63
36234;BME280;43467;50.890;5.982;2023-04-09T12:11:27;100915.72;;;15.40;44.36
36234;BME280;43467;50.890;5.982;2023-04-09T12:14:03;100913.28;;;15.52;43.70
36234;BME280;43467;50.890;5.982;2023-04-09T12:16:33;100922.22;;;15.67;44.56
36234;BME280;43467;50.890;5.982;2023-04-09T12:19:04;100912.16;;;15.72;43.18
36234;BME280;43467;50.890;5.982;2023-04-09T12:21:52;100915.50;;;15.75;43.38
36234;BME280;43467;50.890;5.982;2023-04-09T12:24:21;100918.00;;;15.78;43.77
36234;BME280;43467;50.890;5.982;2023-04-09T12:26:47;100918.78;;;15.80;43.54
36234;BME280;43467;50.890;5.982;2023-04-09T12:29:17;100920.41;;;15.83;43.33
36234;BME280;43467;50.890;5.982;2023-04-09T12:31:43;100917.66;;;15.85;43.85
36234;BME280;43467;50.890;5.982;2023-04-09T12:34:09;100916.00;;;15.82;43.38
36234;BME280;43467;50.890;5.982;2023-04-09T12:36:35;100912.06;;;15.89;43.26
36234;BME280;43467;50.890;5.982;2023-04-09T12:39:01;100922.66;;;15.91;43.45
36234;BME280;43467;50.890;5.982;2023-04-09T12:41:26;100915.50;;;15.91;43.21
36234;BME280;43467;50.890;5.982;2023-04-09T12:43:52;100916.19;;;15.95;42.03
36234;BME280;43467;50.890;5.982;2023-04-09T12:46:18;100920.13;;;16.03;42.46
36234;BME280;43467;50.890;5.982;2023-04-09T12:48:44;100906.72;;;16.05;43.04
36234;BME280;43467;50.890;5.982;2023-04-09T12:51:10;100908.28;;;15.93;41.97
36234;BME280;43467;50.890;5.982;2023-04-09T12:53:36;100905.31;;;15.98;42.65
36234;BME280;43467;50.890;5.982;2023-04-09T12:56:01;100901.44;;;16.03;43.07
36234;BME280;43467;50.890;5.982;2023-04-09T12:58:27;100905.31;;;15.98;42.60
36234;BME280;43467;50.890;5.982;2023-04-09T13:00:53;100903.75;;;15.94;42.71
36234;BME280;43467;50.890;5.982;2023-04-09T13:03:19;100900.69;;;16.01;43.60
36234;BME280;43467;50.890;5.982;2023-04-09T13:05:45;100890.75;;;16.03;43.13
36234;BME280;43467;50.890;5.982;2023-04-09T13:08:11;100895.91;;;16.06;43.05
36234;BME280;43467;50.890;5.982;2023-04-09T13:10:37;100902.91;;;16.09;42.64
36234;BME280;43467;50.890;5.982;2023-04-09T13:13:02;100900.13;;;16.10;42.78
36234;BME280;43467;50.890;5.982;2023-04-09T13:15:28;100902.72;;;16.12;42.46
36234;BME280;43467;50.890;5.982;2023-04-09T13:17:54;100901.59;;;16.16;42.74